^^
Grace C. Lehan Memorial Weather Station Historical Data
Daily Summary for March 24, 2021 Units:  English    Metric   Both
Daily Weekly Monthly Yearly
  High: Low: Average:
Temperature: 29.4 °F 25.1 °F 27 °F
Dew Point: 25.4 °F 15.8 °F 23.3 °F
Humidity: 90% 57.1% 86%
Wind Speed: 2mph 0mph 0.2mph
Wind Gust: 7mph - -
Wind- - ESE
Pressure: 30.19 in 30.00 in -
Precipitation: 0.00 in    
 
 
Tabular Data for March 24, 2021
Time Temperature Dew Point Pressure Wind Wind Speed Wind Gust Humidity Rainfall Rate (Hourly) solar
00:04 29 °F 15.8 °F 30.16 in NW 0.4 mph 4 mph 57.1% 0.00 in 0 W/m2
00:09 28.8 °F 16.2 °F 30.16 in Calm   4 mph 58.8% 0.00 in 0 W/m2
00:14 28.6 °F 16.7 °F 30.16 in Calm   4 mph 60.6% 0.00 in 0 W/m2
00:19 28.5 °F 17.5 °F 30.16 in NW 0.1 mph 4 mph 63% 0.00 in 0 W/m2
00:24 28.4 °F 18.1 °F 30.16 in NW 0.4 mph 4 mph 64.8% 0.00 in 0 W/m2
00:29 28.3 °F 18.5 °F 30.16 in Calm   4 mph 66.2% 0.00 in 0 W/m2
00:34 28.1 °F 18.9 °F 30.17 in Calm   4 mph 68% 0.00 in 0 W/m2
00:39 27.9 °F 19.5 °F 30.16 in Calm   1 mph 70.2% 0.00 in 0 W/m2
00:44 27.7 °F 19.9 °F 30.17 in NW 0.2 mph 2 mph 71.9% 0.00 in 0 W/m2
00:49 27.5 °F 20.1 °F 30.17 in Calm   2 mph 73.3% 0.00 in 0 W/m2
00:54 27.3 °F 20.3 °F 30.17 in Calm   2 mph 74.6% 0.00 in 0 W/m2
00:59 27.1 °F 20.5 °F 30.17 in Calm   2 mph 75.7% 0.00 in 0 W/m2
01:04 26.9 °F 20.6 °F 30.17 in Calm   2 mph 76.9% 0.00 in 0 W/m2
01:09 26.7 °F 20.9 °F 30.17 in NW 0.2 mph 2 mph 78.4% 0.00 in 0 W/m2
01:14 26.6 °F 21.1 °F 30.17 in NW 0.1 mph 2 mph 79.5% 0.00 in 0 W/m2
01:19 26.4 °F 21.3 °F 30.18 in NW 0.2 mph 3 mph 80.4% 0.00 in 0 W/m2
01:24 26.3 °F 21.4 °F 30.18 in Calm   3 mph 81.2% 0.00 in 0 W/m2
01:29 26.3 °F 21.5 °F 30.19 in Calm   3 mph 82% 0.00 in 0 W/m2
01:34 26.2 °F 21.7 °F 30.19 in Calm   3 mph 82.9% 0.00 in 0 W/m2
01:39 26.2 °F 21.8 °F 30.19 in Calm     83% 0.00 in 0 W/m2
01:44 26.2 °F 22 °F 30.19 in Calm     84% 0.00 in 0 W/m2
01:49 26.1 °F 21.9 °F 30.18 in Calm     84% 0.00 in 0 W/m2
01:54 26 °F 21.8 °F 30.18 in Calm     84% 0.00 in 0 W/m2
01:59 25.9 °F 21.9 °F 30.18 in Calm     84.4% 0.00 in 0 W/m2
02:04 25.8 °F 22 °F 30.18 in Calm     85% 0.00 in 0 W/m2
02:09 25.8 °F 21.9 °F 30.17 in NW 0.1 mph 2 mph 85% 0.00 in 0 W/m2
02:14 25.6 °F 21.8 °F 30.17 in Calm   2 mph 85% 0.00 in 0 W/m2
02:19 25.5 °F 21.9 °F 30.17 in Calm   2 mph 85.9% 0.00 in 0 W/m2
02:24 25.4 °F 21.8 °F 30.18 in Calm   2 mph 86% 0.00 in 0 W/m2
02:29 25.4 °F 21.8 °F 30.18 in NW 0.1 mph 2 mph 86% 0.00 in 0 W/m2
02:34 25.5 °F 22 °F 30.18 in Calm   2 mph 86.3% 0.00 in 0 W/m2
02:39 25.5 °F 22.2 °F 30.18 in Calm     87% 0.00 in 0 W/m2
02:44 25.5 °F 22.2 °F 30.18 in NW 0.1 mph 2 mph 87% 0.00 in 0 W/m2
02:49 25.5 °F 22.2 °F 30.17 in Calm   2 mph 87% 0.00 in 0 W/m2
02:54 25.5 °F 22.2 °F 30.17 in Calm   2 mph 87% 0.00 in 0 W/m2
02:59 25.5 °F 22.1 °F 30.17 in Calm   2 mph 86.8% 0.00 in 0 W/m2
03:04 25.4 °F 21.8 °F 30.17 in Calm   2 mph 86% 0.00 in 0 W/m2
03:09 25.4 °F 21.8 °F 30.17 in Calm     86% 0.00 in 0 W/m2
03:14 25.3 °F 21.7 °F 30.16 in Calm     86% 0.00 in 0 W/m2
03:19 25.2 °F 21.7 °F 30.15 in Calm     86% 0.00 in 0 W/m2
03:24 25.2 °F 21.7 °F 30.15 in Calm     86% 0.00 in 0 W/m2
03:29 25.3 °F 21.8 °F 30.15 in Calm     86.3% 0.00 in 0 W/m2
03:34 25.3 °F 21.8 °F 30.15 in Calm     86.4% 0.00 in 0 W/m2
03:39 25.2 °F 21.6 °F 30.14 in NW 0.4 mph 2 mph 86% 0.00 in 0 W/m2
03:44 25.1 °F 21.6 °F 30.15 in NW 0.1 mph 2 mph 86% 0.00 in 0 W/m2
03:49 25.1 °F 21.5 °F 30.15 in Calm   2 mph 86% 0.00 in 0 W/m2
03:54 25.1 °F 21.5 °F 30.15 in Calm   2 mph 86% 0.00 in 0 W/m2
03:59 25.1 °F 21.5 °F 30.15 in Calm   2 mph 86% 0.00 in 0 W/m2
04:00 25.1 °F 21.5 °F 30.14 in Calm   2 mph 86% 0.00 in 0 W/m2
04:09 25.1 °F 21.5 °F 30.14 in Calm     86% 0.00 in 0 W/m2
04:14 25.1 °F 21.7 °F 30.14 in Calm     86.6% 0.00 in 0 W/m2
04:19 25.2 °F 21.8 °F 30.14 in Calm     87% 0.00 in 0 W/m2
04:24 25.2 °F 21.9 °F 30.14 in Calm     87% 0.00 in 0 W/m2
04:29 25.3 °F 22 °F 30.14 in Calm     87% 0.00 in 0 W/m2
04:34 25.4 °F 22.1 °F 30.14 in Calm     87% 0.00 in 0 W/m2
04:39 25.4 °F 22.1 °F 30.13 in Calm     87% 0.00 in 0 W/m2
04:44 25.4 °F 22.1 °F 30.13 in NW 0.2 mph 2 mph 87% 0.00 in 0 W/m2
04:49 25.5 °F 22.2 °F 30.13 in Calm   2 mph 87% 0.00 in 0 W/m2
04:54 25.5 °F 22.2 °F 30.13 in Calm   2 mph 87% 0.00 in 0 W/m2
04:59 25.6 °F 22.4 °F 30.13 in Calm   2 mph 87.7% 0.00 in 0 W/m2
05:04 25.5 °F 22.4 °F 30.13 in Calm   2 mph 87.6% 0.00 in 0 W/m2
05:09 25.5 °F 22.2 °F 30.12 in Calm     87% 0.00 in 0 W/m2
05:14 25.5 °F 22.4 °F 30.13 in Calm     87.9% 0.00 in 0 W/m2
05:19 25.5 °F 22.4 °F 30.13 in Calm     88% 0.00 in 0 W/m2
05:24 25.4 °F 22.4 °F 30.12 in Calm     88% 0.00 in 0 W/m2
05:29 25.4 °F 22.4 °F 30.13 in Calm     88% 0.00 in 0 W/m2
05:34 25.4 °F 22.4 °F 30.13 in NW 0.2 mph 2 mph 88% 0.00 in 0 W/m2
05:39 25.4 °F 22.4 °F 30.12 in Calm   2 mph 88% 0.00 in 0 W/m2
05:44 25.4 °F 22.4 °F 30.13 in Calm   2 mph 88% 0.00 in 0 W/m2
05:49 25.4 °F 22.5 °F 30.13 in Calm   2 mph 88.5% 0.00 in 0 W/m2
05:54 25.4 °F 22.4 °F 30.12 in Calm   2 mph 88.2% 0.00 in 0 W/m2
05:59 25.3 °F 22.4 °F 30.12 in Calm   2 mph 88.6% 0.00 in 0 W/m2
06:04 25.3 °F 22.5 °F 30.12 in Calm   2 mph 89% 0.00 in 0 W/m2
06:09 25.3 °F 22.5 °F 30.12 in Calm     89% 0.00 in 0 W/m2
06:14 25.3 °F 22.5 °F 30.12 in Calm     89% 0.00 in 0 W/m2
06:19 25.2 °F 22.4 °F 30.12 in Calm     89% 0.00 in 0 W/m2
06:24 25.2 °F 22.4 °F 30.13 in Calm     89% 0.00 in 0 W/m2
06:29 25.3 °F 22.5 °F 30.13 in Calm     89% 0.00 in 0 W/m2
06:34 25.3 °F 22.5 °F 30.13 in Calm     89% 0.00 in 0 W/m2
06:39 25.3 °F 22.5 °F 30.13 in Calm     89% 0.00 in 0 W/m2
06:44 25.4 °F 22.6 °F 30.12 in Calm     89% 0.00 in 0 W/m2
06:49 25.4 °F 22.6 °F 30.12 in Calm     89% 0.00 in 0 W/m2
06:54 25.4 °F 22.6 °F 30.13 in Calm     89% 0.00 in 0 W/m2
06:59 25.5 °F 22.9 °F 30.13 in Calm     89.6% 0.00 in 0 W/m2
07:04 25.6 °F 23 °F 30.13 in Calm     90% 0.00 in 0 W/m2
07:09 25.6 °F 23.1 °F 30.13 in Calm     90% 0.00 in 0 W/m2
07:14 25.6 °F 23.1 °F 30.13 in NNW 0.4 mph 3 mph 90% 0.00 in 0 W/m2
07:19 25.6 °F 23 °F 30.12 in Calm   3 mph 89.6% 0.00 in 0 W/m2
07:24 25.6 °F 22.9 °F 30.12 in NNW 0.1 mph 3 mph 89.3% 0.00 in 0 W/m2
07:29 25.6 °F 22.8 °F 30.12 in Calm   3 mph 89.1% 0.00 in 0 W/m2
07:34 25.6 °F 23.1 °F 30.13 in Calm   3 mph 90% 0.00 in 0 W/m2
07:39 25.6 °F 23.1 °F 30.13 in Calm   1 mph 90% 0.00 in 0 W/m2
07:44 25.7 °F 23.2 °F 30.12 in NNW 0.1 mph 2 mph 90% 0.00 in 0 W/m2
07:49 25.7 °F 23.2 °F 30.13 in Calm   2 mph 90% 0.00 in 0 W/m2
07:54 25.7 °F 23.2 °F 30.13 in NNW 0.3 mph 3 mph 90% 0.00 in 0 W/m2
07:59 25.7 °F 23.2 °F 30.13 in NNW 0.2 mph 3 mph 90% 0.00 in 0 W/m2
08:04 25.7 °F 23.2 °F 30.12 in Calm   3 mph 90% 0.00 in 5 W/m2
08:09 25.7 °F 23.2 °F 30.12 in Calm     90% 0.00 in 5 W/m2
08:14 25.8 °F 23.2 °F 30.12 in Calm     90% 0.00 in 7 W/m2
08:19 25.8 °F 23.3 °F 30.12 in Calm   1 mph 90% 0.00 in 9 W/m2
08:24 25.8 °F 23.3 °F 30.12 in Calm   1 mph 90% 0.00 in 16 W/m2
08:29 25.8 °F 23.3 °F 30.12 in Calm   1 mph 90% 0.00 in 16 W/m2
08:34 25.9 °F 23.4 °F 30.12 in Calm   1 mph 90% 0.00 in 16 W/m2
08:39 25.9 °F 23.4 °F 30.13 in NNW 0.3 mph 3 mph 90% 0.00 in 19 W/m2
08:44 25.9 °F 23.4 °F 30.13 in North 0.8 mph 4 mph 90% 0.00 in 23 W/m2
08:49 25.9 °F 23.4 °F 30.13 in North 0.1 mph 4 mph 90% 0.00 in 19 W/m2
08:54 26 °F 23.5 °F 30.13 in Calm   4 mph 90% 0.00 in 21 W/m2
08:59 26.1 °F 23.6 °F 30.13 in Calm   4 mph 90% 0.00 in 21 W/m2
09:04 26.1 °F 23.6 °F 30.13 in North 0.2 mph 4 mph 90% 0.00 in 19 W/m2
09:09 26.1 °F 23.6 °F 30.13 in Calm   2 mph 90% 0.00 in 19 W/m2
09:14 26.1 °F 23.6 °F 30.13 in Calm   2 mph 90% 0.00 in 21 W/m2
09:19 26 °F 23.5 °F 30.13 in North 0.7 mph 2 mph 90% 0.00 in 21 W/m2
09:24 26 °F 23.5 °F 30.13 in North 0.8 mph 4 mph 90% 0.00 in 21 W/m2
09:29 26 °F 23.5 °F 30.14 in Calm   4 mph 90% 0.00 in 16 W/m2
09:34 26.1 °F 23.6 °F 30.14 in NNE 1.1 mph 5 mph 90% 0.00 in 16 W/m2
09:39 26.1 °F 23.6 °F 30.14 in NE 1.6 mph 5 mph 90% 0.00 in 16 W/m2
09:44 26 °F 23.5 °F 30.14 in NE 0.5 mph 5 mph 90% 0.00 in 16 W/m2
09:49 26.1 °F 23.5 °F 30.13 in NE 0.9 mph 5 mph 90% 0.00 in 19 W/m2
09:54 26.1 °F 23.6 °F 30.14 in NE 1.9 mph 7 mph 90% 0.00 in 19 W/m2
09:59 26.1 °F 23.6 °F 30.14 in NE 1.2 mph 7 mph 90% 0.00 in 14 W/m2
10:04 26.1 °F 23.6 °F 30.14 in NE 1.8 mph 7 mph 90% 0.00 in 18 W/m2
10:09 26.1 °F 23.6 °F 30.14 in NE 1 mph 6 mph 90% 0.00 in 18 W/m2
10:14 26.1 °F 23.6 °F 30.14 in NE 0.8 mph 6 mph 90% 0.00 in 19 W/m2
10:19 26.1 °F 23.6 °F 30.13 in NE 0.8 mph 6 mph 90% 0.00 in 19 W/m2
10:24 26.1 °F 23.6 °F 30.13 in NE 0.6 mph 6 mph 90% 0.00 in 21 W/m2
10:29 26 °F 23.2 °F 30.13 in NE 1.8 mph 6 mph 89% 0.00 in 21 W/m2
10:34 26 °F 23.2 °F 30.13 in NE 0.5 mph 6 mph 89% 0.00 in 19 W/m2
10:39 26.1 °F 23.3 °F 30.13 in NE 1.1 mph 5 mph 89% 0.00 in 19 W/m2
10:44 26.1 °F 23.3 °F 30.13 in NE 0.1 mph 5 mph 89% 0.00 in 21 W/m2
10:49 26.2 °F 23.4 °F 30.12 in NE 0.3 mph 5 mph 89% 0.00 in 30 W/m2
10:54 26.2 °F 23.5 °F 30.12 in NE 0.5 mph 5 mph 89% 0.00 in 28 W/m2
10:59 26.4 °F 23.6 °F 30.12 in NE 0.1 mph 5 mph 89% 0.00 in 19 W/m2
11:04 26.5 °F 24 °F 30.11 in NE 0.1 mph 5 mph 90% 0.00 in 19 W/m2
11:09 26.6 °F 23.8 °F 30.11 in NE 0.3 mph 3 mph 89.1% 0.00 in 25 W/m2
11:14 26.7 °F 23.9 °F 30.10 in NE 0.1 mph 3 mph 89% 0.00 in 30 W/m2
11:19 26.8 °F 24 °F 30.10 in NE 0.3 mph 3 mph 89% 0.00 in 30 W/m2
11:24 26.9 °F 24.1 °F 30.09 in Calm   3 mph 89% 0.00 in 37 W/m2
11:29 26.9 °F 24.1 °F 30.09 in Calm   3 mph 89% 0.00 in 39 W/m2
11:34 27 °F 24.2 °F 30.09 in NE 0.5 mph 3 mph 89% 0.00 in 33 W/m2
11:39 27 °F 24 °F 30.08 in NE 0.3 mph 3 mph 88.2% 0.00 in 44 W/m2
11:44 27 °F 24 °F 30.08 in NE 0.5 mph 3 mph 88% 0.00 in 47 W/m2
11:49 27.2 °F 24.2 °F 30.08 in NE 0.3 mph 3 mph 88% 0.00 in 35 W/m2
11:54 27.4 °F 24.3 °F 30.08 in NE 0.2 mph 3 mph 88% 0.00 in 37 W/m2
11:59 27.5 °F 24.5 °F 30.08 in NE 0.2 mph 3 mph 88% 0.00 in 39 W/m2
12:00 27.6 °F 24.5 °F 30.08 in NE 2 mph 3 mph 88% 0.00 in 32 W/m2
12:09 27.6 °F 24.2 °F 30.07 in NE 0.8 mph 4 mph 87% 0.00 in 53 W/m2
12:14 27.6 °F 24.3 °F 30.08 in NE 0.5 mph 4 mph 87% 0.00 in 40 W/m2
12:19 27.7 °F 24.4 °F 30.08 in NE 0.8 mph 4 mph 87% 0.00 in 39 W/m2
12:24 27.8 °F 24.5 °F 30.08 in NE 0.3 mph 4 mph 87% 0.00 in 35 W/m2
12:29 27.9 °F 24.5 °F 30.08 in NE 1.3 mph 4 mph 86.8% 0.00 in 39 W/m2
12:34 27.9 °F 24.3 °F 30.08 in NE 1.4 mph 4 mph 86% 0.00 in 40 W/m2
12:39 28 °F 24.3 °F 30.08 in NE 0.7 mph 4 mph 86% 0.00 in 40 W/m2
12:44 28.1 °F 24.4 °F 30.08 in Calm   4 mph 86% 0.00 in 33 W/m2
12:49 28.1 °F 24.4 °F 30.08 in NE 0.9 mph 4 mph 86% 0.00 in 30 W/m2
12:54 28.1 °F 24.5 °F 30.08 in NE 0.3 mph 4 mph 86% 0.00 in 30 W/m2
12:59 28.1 °F 24.5 °F 30.06 in Calm   4 mph 86% 0.00 in 32 W/m2
13:04 28.2 °F 24.6 °F 30.07 in NE 0.3 mph 4 mph 86% 0.00 in 32 W/m2
13:09 28.2 °F 24.5 °F 30.07 in Calm   2 mph 86% 0.00 in 28 W/m2
13:14 28.2 °F 24.5 °F 30.06 in Calm   2 mph 86% 0.00 in 33 W/m2
13:19 28.2 °F 24.3 °F 30.06 in Calm   2 mph 85.1% 0.00 in 42 W/m2
13:24 28.3 °F 24.6 °F 30.05 in NE 0.7 mph 4 mph 85.9% 0.00 in 47 W/m2
13:29 28.3 °F 24.4 °F 30.05 in NE 0.8 mph 4 mph 85% 0.00 in 47 W/m2
13:34 28.4 °F 24.5 °F 30.04 in NE 0.1 mph 4 mph 85% 0.00 in 47 W/m2
13:39 28.6 °F 24.6 °F 30.04 in NE 0.8 mph 4 mph 85% 0.00 in 54 W/m2
13:44 28.7 °F 24.8 °F 30.04 in NE 0.9 mph 4 mph 85% 0.00 in 70 W/m2
13:49 28.9 °F 25 °F 30.03 in NE 1 mph 4 mph 85% 0.00 in 69 W/m2
13:54 29 °F 25.1 °F 30.03 in NE 1 mph 5 mph 85% 0.00 in 54 W/m2
13:59 29.2 °F 25.2 °F 30.03 in NE 0.3 mph 5 mph 85% 0.00 in 51 W/m2
14:04 29.3 °F 25.3 °F 30.03 in NE 1.3 mph 6 mph 84.8% 0.00 in 42 W/m2
14:09 29.3 °F 25 °F 30.03 in NE 0.2 mph 6 mph 84% 0.00 in 42 W/m2
14:14 29.3 °F 25.1 °F 30.03 in NE 0.9 mph 6 mph 84% 0.00 in 37 W/m2
14:19 29.3 °F 25.1 °F 30.03 in Calm   6 mph 84% 0.00 in 35 W/m2
14:24 29.3 °F 25.1 °F 30.03 in Calm   6 mph 84% 0.00 in 32 W/m2
14:29 29.3 °F 25.1 °F 30.02 in NE 0.1 mph 6 mph 84% 0.00 in 32 W/m2
14:34 29.4 °F 25.1 °F 30.03 in NE 0.4 mph 6 mph 84% 0.00 in 25 W/m2
14:39 29.3 °F 25.1 °F 30.04 in Calm   3 mph 84% 0.00 in 21 W/m2
14:44 29.2 °F 25 °F 30.05 in NE 0.5 mph 3 mph 83.8% 0.00 in 21 W/m2
14:49 29.3 °F 25.1 °F 30.05 in NE 1.1 mph 4 mph 84% 0.00 in 23 W/m2
14:54 29.3 °F 25.1 °F 30.05 in Calm   4 mph 84% 0.00 in 21 W/m2
14:59 29.3 °F 25.1 °F 30.06 in NE 0.7 mph 5 mph 84% 0.00 in 18 W/m2
15:04 29.2 °F 25 °F 30.07 in NE 1.2 mph 5 mph 84% 0.00 in 16 W/m2
15:09 29.2 °F 25 °F 30.07 in NE 1.1 mph 4 mph 84% 0.00 in 11 W/m2
15:14 29.2 °F 25 °F 30.06 in NE 0.3 mph 4 mph 84% 0.00 in 12 W/m2
15:19 29.2 °F 25 °F 30.06 in Calm   4 mph 84% 0.00 in 12 W/m2
15:24 29.3 °F 25.1 °F 30.07 in NE 0.3 mph 4 mph 84.2% 0.00 in 9 W/m2
15:29 29.3 °F 25.2 °F 30.07 in NE 0.1 mph 4 mph 84.5% 0.00 in 9 W/m2
15:34 29.3 °F 25.1 °F 30.07 in NE 1 mph 4 mph 84.1% 0.00 in 9 W/m2
15:39 29.3 °F 25 °F 30.06 in NE 0.5 mph 3 mph 84% 0.00 in 9 W/m2
15:44 29.2 °F 25 °F 30.05 in Calm   3 mph 84% 0.00 in 9 W/m2
15:49 29.1 °F 24.8 °F 30.05 in NE 0.7 mph 3 mph 84% 0.00 in 11 W/m2
15:54 29 °F 24.8 °F 30.05 in NE 0.6 mph 4 mph 84% 0.00 in 11 W/m2
15:59 28.9 °F 24.7 °F 30.05 in NE 0.4 mph 4 mph 84% 0.00 in 5 W/m2
16:00 29 °F 24.8 °F 30.04 in Calm   4 mph 84% 0.00 in 5 W/m2
16:09 28.9 °F 24.7 °F 30.05 in Calm     84% 0.00 in 0 W/m2
16:14 28.9 °F 24.7 °F 30.05 in Calm   1 mph 84% 0.00 in 0 W/m2
16:19 28.9 °F 24.7 °F 30.05 in Calm   1 mph 84% 0.00 in 0 W/m2
16:24 28.8 °F 24.6 °F 30.05 in Calm   1 mph 84% 0.00 in 0 W/m2
16:29 28.8 °F 24.6 °F 30.04 in Calm   1 mph 84% 0.00 in 0 W/m2
16:34 28.8 °F 24.6 °F 30.04 in NE 0.5 mph 4 mph 84% 0.00 in 0 W/m2
16:39 28.8 °F 24.9 °F 30.04 in NE 0.4 mph 4 mph 85% 0.00 in 0 W/m2
16:44 28.8 °F 24.9 °F 30.03 in NE 0.1 mph 4 mph 85% 0.00 in 0 W/m2
16:49 28.8 °F 24.9 °F 30.03 in Calm   4 mph 85% 0.00 in 0 W/m2
16:54 28.7 °F 24.6 °F 30.03 in Calm   4 mph 84.3% 0.00 in 0 W/m2
16:59 28.7 °F 24.5 °F 30.03 in NE 0.1 mph 4 mph 84% 0.00 in 0 W/m2
17:04 28.6 °F 24.4 °F 30.02 in Calm   4 mph 84% 0.00 in 0 W/m2
17:09 28.5 °F 24.3 °F 30.02 in Calm     84% 0.00 in 0 W/m2
17:14 28.5 °F 24.5 °F 30.02 in Calm     84.8% 0.00 in 0 W/m2
17:19 28.5 °F 24.6 °F 30.02 in NE 0.1 mph 2 mph 85% 0.00 in 0 W/m2
17:24 28.5 °F 24.5 °F 30.01 in Calm   2 mph 85% 0.00 in 0 W/m2
17:29 28.4 °F 24.5 °F 30.01 in Calm   2 mph 85% 0.00 in 0 W/m2
17:34 28.4 °F 24.4 °F 30.01 in Calm   2 mph 85% 0.00 in 0 W/m2
17:39 28.3 °F 24.4 °F 30.01 in Calm     85% 0.00 in 0 W/m2
17:44 28.4 °F 24.5 °F 30.01 in Calm     85% 0.00 in 0 W/m2
17:49 28.4 °F 24.4 °F 30.01 in Calm     85% 0.00 in 0 W/m2
17:54 28.4 °F 24.7 °F 30.01 in Calm     85.8% 0.00 in 0 W/m2
17:59 28.4 °F 24.8 °F 30.01 in Calm     86% 0.00 in 0 W/m2
18:04 28.4 °F 24.8 °F 30.00 in Calm     86% 0.00 in 0 W/m2
18:09 28.4 °F 24.8 °F 30.00 in Calm     86% 0.00 in 0 W/m2
18:14 28.4 °F 24.8 °F 30.00 in Calm     86% 0.00 in 0 W/m2
18:19 28.4 °F 24.8 °F 30.00 in Calm     86% 0.00 in 0 W/m2
18:24 28.3 °F 24.7 °F 30.01 in Calm     86% 0.00 in 0 W/m2
18:29 28.4 °F 24.7 °F 30.01 in Calm     86% 0.00 in 0 W/m2
18:34 28.4 °F 24.8 °F 30.01 in Calm     86% 0.00 in 0 W/m2
18:39 28.5 °F 25 °F 30.02 in Calm     86.4% 0.00 in 0 W/m2
18:44 28.6 °F 25.1 °F 30.02 in Calm   1 mph 86.6% 0.00 in 0 W/m2
18:49 28.7 °F 25.3 °F 30.02 in Calm   1 mph 87% 0.00 in 0 W/m2
18:54 28.7 °F 25.2 °F 30.03 in Calm   1 mph 86.7% 0.00 in 0 W/m2
18:59 28.8 °F 25.4 °F 30.03 in Calm   1 mph 87% 0.00 in 0 W/m2
19:04 28.7 °F 25.2 °F 30.02 in Calm   1 mph 86.2% 0.00 in 0 W/m2
19:09 28.7 °F 25.1 °F 30.02 in Calm     86% 0.00 in 0 W/m2
19:14 28.7 °F 25.2 °F 30.02 in Calm     86.5% 0.00 in 0 W/m2
19:19 28.7 °F 25.3 °F 30.02 in Calm     87% 0.00 in 0 W/m2
19:24 28.7 °F 25.3 °F 30.01 in Calm     87% 0.00 in 0 W/m2
19:29 28.7 °F 25.2 °F 30.02 in Calm     86.5% 0.00 in 0 W/m2
19:33 28.7 °F 25.3 °F 30.01 in Calm     86.7% 0.00 in 0 W/m2
Hartford County Weather
Compliments of Weather Underground - 2 mb